sensor_id;sensor_type;location;lat;lon;timestamp;P1;durP1;ratioP1;P2;durP2;ratioP2
67278;SDS011;54193;53.746;10.058;2022-07-04T00:00:45;13.25;;;5.60;;
67278;SDS011;54193;53.746;10.058;2022-07-04T00:03:31;11.60;;;5.38;;
67278;SDS011;54193;53.746;10.058;2022-07-04T00:06:16;12.23;;;5.57;;
67278;SDS011;54193;53.746;10.058;2022-07-04T00:09:02;12.48;;;5.72;;
67278;SDS011;54193;53.746;10.058;2022-07-04T00:11:50;11.73;;;5.93;;
67278;SDS011;54193;53.746;10.058;2022-07-04T00:14:35;12.57;;;5.75;;
67278;SDS011;54193;53.746;10.058;2022-07-04T00:17:21;10.57;;;5.80;;
67278;SDS011;54193;53.746;10.058;2022-07-04T00:20:07;11.33;;;5.80;;
67278;SDS011;54193;53.746;10.058;2022-07-04T00:22:56;12.00;;;5.90;;
67278;SDS011;54193;53.746;10.058;2022-07-04T00:25:41;12.32;;;6.10;;
67278;SDS011;54193;53.746;10.058;2022-07-04T00:28:27;12.23;;;5.97;;
67278;SDS011;54193;53.746;10.058;2022-07-04T00:31:13;13.07;;;5.88;;
67278;SDS011;54193;53.746;10.058;2022-07-04T00:33:58;14.53;;;6.30;;
67278;SDS011;54193;53.746;10.058;2022-07-04T00:36:44;13.45;;;7.03;;
67278;SDS011;54193;53.746;10.058;2022-07-04T00:39:31;16.58;;;7.22;;
67278;SDS011;54193;53.746;10.058;2022-07-04T00:42:16;13.48;;;7.20;;
67278;SDS011;54193;53.746;10.058;2022-07-04T00:45:02;14.48;;;7.70;;
67278;SDS011;54193;53.746;10.058;2022-07-04T00:47:48;16.63;;;7.50;;
67278;SDS011;54193;53.746;10.058;2022-07-04T00:50:34;16.67;;;8.10;;
67278;SDS011;54193;53.746;10.058;2022-07-04T00:53:22;14.45;;;7.53;;
67278;SDS011;54193;53.746;10.058;2022-07-04T00:56:08;17.08;;;7.75;;
67278;SDS011;54193;53.746;10.058;2022-07-04T00:58:54;15.02;;;7.95;;
67278;SDS011;54193;53.746;10.058;2022-07-04T01:01:41;17.23;;;8.30;;
67278;SDS011;54193;53.746;10.058;2022-07-04T01:04:26;18.55;;;8.65;;
67278;SDS011;54193;53.746;10.058;2022-07-04T01:07:12;16.58;;;8.43;;
67278;SDS011;54193;53.746;10.058;2022-07-04T01:09:58;20.58;;;8.50;;
67278;SDS011;54193;53.746;10.058;2022-07-04T01:12:44;23.48;;;9.30;;
67278;SDS011;54193;53.746;10.058;2022-07-04T01:15:29;19.47;;;9.37;;
67278;SDS011;54193;53.746;10.058;2022-07-04T01:18:15;22.65;;;9.38;;
67278;SDS011;54193;53.746;10.058;2022-07-04T01:21:01;18.40;;;9.32;;
67278;SDS011;54193;53.746;10.058;2022-07-04T01:23:47;24.17;;;9.55;;
67278;SDS011;54193;53.746;10.058;2022-07-04T01:26:32;21.83;;;9.48;;
67278;SDS011;54193;53.746;10.058;2022-07-04T01:29:18;20.00;;;9.80;;
67278;SDS011;54193;53.746;10.058;2022-07-04T01:32:06;22.17;;;9.93;;
67278;SDS011;54193;53.746;10.058;2022-07-04T01:34:52;21.13;;;10.20;;
67278;SDS011;54193;53.746;10.058;2022-07-04T01:37:38;23.98;;;10.93;;
67278;SDS011;54193;53.746;10.058;2022-07-04T01:40:24;26.38;;;11.10;;
67278;SDS011;54193;53.746;10.058;2022-07-04T01:43:10;24.23;;;10.93;;
67278;SDS011;54193;53.746;10.058;2022-07-04T01:45:55;22.92;;;10.95;;
67278;SDS011;54193;53.746;10.058;2022-07-04T01:48:41;25.52;;;11.23;;
67278;SDS011;54193;53.746;10.058;2022-07-04T01:51:26;25.40;;;11.55;;
67278;SDS011;54193;53.746;10.058;2022-07-04T01:54:12;27.30;;;11.25;;
67278;SDS011;54193;53.746;10.058;2022-07-04T01:56:58;25.10;;;11.73;;
67278;SDS011;54193;53.746;10.058;2022-07-04T01:59:43;26.17;;;11.73;;
67278;SDS011;54193;53.746;10.058;2022-07-04T02:02:47;28.48;;;12.73;;
67278;SDS011;54193;53.746;10.058;2022-07-04T02:05:33;25.45;;;12.30;;
67278;SDS011;54193;53.746;10.058;2022-07-04T02:08:19;22.58;;;11.65;;
67278;SDS011;54193;53.746;10.058;2022-07-04T02:11:04;26.67;;;11.93;;
67278;SDS011;54193;53.746;10.058;2022-07-04T02:13:50;27.48;;;12.50;;
67278;SDS011;54193;53.746;10.058;2022-07-04T02:16:36;29.30;;;13.90;;
67278;SDS011;54193;53.746;10.058;2022-07-04T02:19:21;31.65;;;13.85;;
67278;SDS011;54193;53.746;10.058;2022-07-04T02:22:07;29.30;;;13.25;;
67278;SDS011;54193;53.746;10.058;2022-07-04T02:24:53;35.47;;;14.33;;
67278;SDS011;54193;53.746;10.058;2022-07-04T02:27:38;32.47;;;13.95;;
67278;SDS011;54193;53.746;10.058;2022-07-04T02:30:24;34.15;;;13.45;;
67278;SDS011;54193;53.746;10.058;2022-07-04T02:33:10;30.88;;;14.10;;
67278;SDS011;54193;53.746;10.058;2022-07-04T02:35:55;33.55;;;14.35;;
67278;SDS011;54193;53.746;10.058;2022-07-04T02:38:41;33.73;;;14.13;;
67278;SDS011;54193;53.746;10.058;2022-07-04T02:41:27;33.22;;;14.07;;
67278;SDS011;54193;53.746;10.058;2022-07-04T02:44:13;34.60;;;14.57;;
67278;SDS011;54193;53.746;10.058;2022-07-04T02:46:59;36.90;;;16.00;;
67278;SDS011;54193;53.746;10.058;2022-07-04T02:49:45;35.40;;;15.48;;
67278;SDS011;54193;53.746;10.058;2022-07-04T02:52:31;40.40;;;16.43;;
67278;SDS011;54193;53.746;10.058;2022-07-04T02:55:16;37.75;;;14.95;;
67278;SDS011;54193;53.746;10.058;2022-07-04T02:58:02;38.67;;;15.05;;
67278;SDS011;54193;53.746;10.058;2022-07-04T03:00:48;35.55;;;15.05;;
67278;SDS011;54193;53.746;10.058;2022-07-04T03:03:34;39.33;;;16.05;;
67278;SDS011;54193;53.746;10.058;2022-07-04T03:06:20;38.13;;;16.20;;
67278;SDS011;54193;53.746;10.058;2022-07-04T03:09:05;37.13;;;16.20;;
67278;SDS011;54193;53.746;10.058;2022-07-04T03:11:51;41.60;;;16.33;;
67278;SDS011;54193;53.746;10.058;2022-07-04T03:14:37;36.42;;;16.23;;
67278;SDS011;54193;53.746;10.058;2022-07-04T03:17:22;36.15;;;15.60;;
67278;SDS011;54193;53.746;10.058;2022-07-04T03:20:08;40.37;;;16.57;;
67278;SDS011;54193;53.746;10.058;2022-07-04T03:22:54;35.70;;;15.15;;
67278;SDS011;54193;53.746;10.058;2022-07-04T03:25:40;37.97;;;16.55;;
67278;SDS011;54193;53.746;10.058;2022-07-04T03:28:26;40.65;;;16.10;;
67278;SDS011;54193;53.746;10.058;2022-07-04T03:31:13;36.25;;;16.20;;
67278;SDS011;54193;53.746;10.058;2022-07-04T03:33:58;40.73;;;16.60;;
67278;SDS011;54193;53.746;10.058;2022-07-04T03:36:45;39.40;;;15.82;;
67278;SDS011;54193;53.746;10.058;2022-07-04T03:39:30;40.05;;;15.80;;
67278;SDS011;54193;53.746;10.058;2022-07-04T03:42:16;42.00;;;16.13;;
67278;SDS011;54193;53.746;10.058;2022-07-04T03:45:03;37.92;;;16.60;;
67278;SDS011;54193;53.746;10.058;2022-07-04T03:47:51;42.33;;;16.70;;
67278;SDS011;54193;53.746;10.058;2022-07-04T03:50:36;38.72;;;16.30;;
67278;SDS011;54193;53.746;10.058;2022-07-04T03:53:22;37.08;;;15.13;;
67278;SDS011;54193;53.746;10.058;2022-07-04T03:56:08;40.45;;;16.05;;
67278;SDS011;54193;53.746;10.058;2022-07-04T03:58:53;36.80;;;15.10;;
67278;SDS011;54193;53.746;10.058;2022-07-04T04:01:39;33.23;;;15.17;;
67278;SDS011;54193;53.746;10.058;2022-07-04T04:04:26;35.50;;;15.25;;
67278;SDS011;54193;53.746;10.058;2022-07-04T04:07:32;33.58;;;14.77;;
67278;SDS011;54193;53.746;10.058;2022-07-04T04:10:17;33.70;;;14.60;;
67278;SDS011;54193;53.746;10.058;2022-07-04T04:13:03;31.42;;;13.40;;
67278;SDS011;54193;53.746;10.058;2022-07-04T04:15:49;27.83;;;13.23;;
67278;SDS011;54193;53.746;10.058;2022-07-04T04:18:34;26.45;;;12.35;;
67278;SDS011;54193;53.746;10.058;2022-07-04T04:21:20;24.48;;;12.95;;
67278;SDS011;54193;53.746;10.058;2022-07-04T04:24:05;27.02;;;12.68;;
67278;SDS011;54193;53.746;10.058;2022-07-04T04:26:53;28.77;;;12.57;;
67278;SDS011;54193;53.746;10.058;2022-07-04T04:29:38;30.67;;;13.53;;
67278;SDS011;54193;53.746;10.058;2022-07-04T04:32:24;32.40;;;14.00;;
67278;SDS011;54193;53.746;10.058;2022-07-04T04:35:10;30.27;;;13.40;;
67278;SDS011;54193;53.746;10.058;2022-07-04T04:37:55;28.80;;;12.70;;
67278;SDS011;54193;53.746;10.058;2022-07-04T04:40:41;31.55;;;13.40;;
67278;SDS011;54193;53.746;10.058;2022-07-04T04:43:27;25.03;;;11.90;;
67278;SDS011;54193;53.746;10.058;2022-07-04T04:46:12;27.15;;;12.30;;
67278;SDS011;54193;53.746;10.058;2022-07-04T04:48:58;25.60;;;12.18;;
67278;SDS011;54193;53.746;10.058;2022-07-04T04:51:44;26.23;;;11.82;;
67278;SDS011;54193;53.746;10.058;2022-07-04T04:54:30;21.20;;;8.93;;
67278;SDS011;54193;53.746;10.058;2022-07-04T04:57:15;24.10;;;10.73;;
67278;SDS011;54193;53.746;10.058;2022-07-04T05:00:01;24.80;;;10.85;;
67278;SDS011;54193;53.746;10.058;2022-07-04T05:02:49;22.20;;;10.77;;
67278;SDS011;54193;53.746;10.058;2022-07-04T05:05:35;22.30;;;10.52;;
67278;SDS011;54193;53.746;10.058;2022-07-04T05:08:21;21.33;;;10.25;;
67278;SDS011;54193;53.746;10.058;2022-07-04T05:11:09;22.87;;;10.30;;
67278;SDS011;54193;53.746;10.058;2022-07-04T05:13:55;21.48;;;9.80;;
67278;SDS011;54193;53.746;10.058;2022-07-04T05:16:41;20.83;;;9.48;;
67278;SDS011;54193;53.746;10.058;2022-07-04T05:19:26;16.42;;;8.10;;
67278;SDS011;54193;53.746;10.058;2022-07-04T05:22:12;17.30;;;9.20;;
67278;SDS011;54193;53.746;10.058;2022-07-04T05:24:58;16.67;;;7.60;;
67278;SDS011;54193;53.746;10.058;2022-07-04T05:27:45;16.63;;;8.38;;
67278;SDS011;54193;53.746;10.058;2022-07-04T05:30:30;17.75;;;7.57;;
67278;SDS011;54193;53.746;10.058;2022-07-04T05:33:16;17.40;;;7.90;;
67278;SDS011;54193;53.746;10.058;2022-07-04T05:36:02;15.95;;;7.30;;
67278;SDS011;54193;53.746;10.058;2022-07-04T05:38:48;23.13;;;14.67;;
67278;SDS011;54193;53.746;10.058;2022-07-04T05:41:33;17.38;;;7.60;;
67278;SDS011;54193;53.746;10.058;2022-07-04T05:44:19;14.02;;;6.72;;
67278;SDS011;54193;53.746;10.058;2022-07-04T05:47:05;13.65;;;6.35;;
67278;SDS011;54193;53.746;10.058;2022-07-04T05:49:51;10.82;;;5.85;;
67278;SDS011;54193;53.746;10.058;2022-07-04T05:52:37;13.20;;;6.00;;
67278;SDS011;54193;53.746;10.058;2022-07-04T05:55:23;11.93;;;5.70;;
67278;SDS011;54193;53.746;10.058;2022-07-04T05:58:08;11.23;;;5.55;;
67278;SDS011;54193;53.746;10.058;2022-07-04T06:00:54;10.70;;;4.95;;
67278;SDS011;54193;53.746;10.058;2022-07-04T06:03:40;8.90;;;4.38;;
67278;SDS011;54193;53.746;10.058;2022-07-04T06:06:26;10.03;;;3.80;;
67278;SDS011;54193;53.746;10.058;2022-07-04T06:09:11;6.82;;;3.72;;
67278;SDS011;54193;53.746;10.058;2022-07-04T06:11:57;7.75;;;3.80;;
67278;SDS011;54193;53.746;10.058;2022-07-04T06:14:43;7.45;;;3.60;;
67278;SDS011;54193;53.746;10.058;2022-07-04T06:17:28;9.13;;;3.50;;
67278;SDS011;54193;53.746;10.058;2022-07-04T06:20:14;6.60;;;3.20;;
67278;SDS011;54193;53.746;10.058;2022-07-04T06:23:00;7.97;;;3.67;;
67278;SDS011;54193;53.746;10.058;2022-07-04T06:25:46;8.25;;;2.90;;
67278;SDS011;54193;53.746;10.058;2022-07-04T06:28:32;5.55;;;2.92;;
67278;SDS011;54193;53.746;10.058;2022-07-04T06:31:19;7.38;;;2.60;;
67278;SDS011;54193;53.746;10.058;2022-07-04T06:34:05;5.90;;;2.37;;
67278;SDS011;54193;53.746;10.058;2022-07-04T06:37:09;4.97;;;2.22;;
67278;SDS011;54193;53.746;10.058;2022-07-04T06:39:55;6.30;;;2.53;;
67278;SDS011;54193;53.746;10.058;2022-07-04T06:42:40;5.50;;;2.20;;
67278;SDS011;54193;53.746;10.058;2022-07-04T06:45:26;3.90;;;2.10;;
67278;SDS011;54193;53.746;10.058;2022-07-04T06:48:12;7.13;;;2.67;;
67278;SDS011;54193;53.746;10.058;2022-07-04T06:50:57;5.68;;;2.42;;
67278;SDS011;54193;53.746;10.058;2022-07-04T06:53:43;4.45;;;1.73;;
67278;SDS011;54193;53.746;10.058;2022-07-04T06:56:30;4.00;;;2.08;;
67278;SDS011;54193;53.746;10.058;2022-07-04T06:59:16;4.30;;;1.98;;
67278;SDS011;54193;53.746;10.058;2022-07-04T07:02:02;5.27;;;2.20;;
67278;SDS011;54193;53.746;10.058;2022-07-04T07:04:48;6.22;;;2.00;;
67278;SDS011;54193;53.746;10.058;2022-07-04T07:07:34;3.97;;;1.92;;
67278;SDS011;54193;53.746;10.058;2022-07-04T07:10:20;5.45;;;1.98;;
67278;SDS011;54193;53.746;10.058;2022-07-04T07:13:06;4.40;;;1.90;;
67278;SDS011;54193;53.746;10.058;2022-07-04T07:15:53;5.20;;;2.00;;
67278;SDS011;54193;53.746;10.058;2022-07-04T07:18:39;5.53;;;2.13;;
67278;SDS011;54193;53.746;10.058;2022-07-04T07:21:25;4.13;;;2.10;;
67278;SDS011;54193;53.746;10.058;2022-07-04T07:24:10;4.80;;;2.10;;
67278;SDS011;54193;53.746;10.058;2022-07-04T07:26:57;4.77;;;1.73;;
67278;SDS011;54193;53.746;10.058;2022-07-04T07:29:42;3.67;;;1.65;;
67278;SDS011;54193;53.746;10.058;2022-07-04T07:32:28;7.10;;;2.20;;
67278;SDS011;54193;53.746;10.058;2022-07-04T07:35:15;4.28;;;1.83;;
67278;SDS011;54193;53.746;10.058;2022-07-04T07:38:02;4.68;;;2.03;;
67278;SDS011;54193;53.746;10.058;2022-07-04T07:40:48;4.47;;;2.00;;
67278;SDS011;54193;53.746;10.058;2022-07-04T07:43:33;4.20;;;1.90;;
67278;SDS011;54193;53.746;10.058;2022-07-04T07:46:19;5.00;;;1.80;;
67278;SDS011;54193;53.746;10.058;2022-07-04T07:49:05;4.18;;;1.90;;
67278;SDS011;54193;53.746;10.058;2022-07-04T07:51:50;4.50;;;1.90;;
67278;SDS011;54193;53.746;10.058;2022-07-04T07:54:36;4.68;;;1.80;;
67278;SDS011;54193;53.746;10.058;2022-07-04T07:57:22;4.13;;;1.88;;
67278;SDS011;54193;53.746;10.058;2022-07-04T08:00:07;4.30;;;1.73;;
67278;SDS011;54193;53.746;10.058;2022-07-04T08:02:54;4.18;;;2.20;;
67278;SDS011;54193;53.746;10.058;2022-07-04T08:05:58;4.30;;;2.10;;
67278;SDS011;54193;53.746;10.058;2022-07-04T08:08:44;3.50;;;2.00;;
67278;SDS011;54193;53.746;10.058;2022-07-04T08:11:29;4.65;;;1.83;;
67278;SDS011;54193;53.746;10.058;2022-07-04T08:14:15;4.47;;;1.93;;
67278;SDS011;54193;53.746;10.058;2022-07-04T08:17:01;5.22;;;1.90;;
67278;SDS011;54193;53.746;10.058;2022-07-04T08:19:47;3.85;;;1.83;;
67278;SDS011;54193;53.746;10.058;2022-07-04T08:22:34;5.78;;;1.80;;
67278;SDS011;54193;53.746;10.058;2022-07-04T08:25:20;3.97;;;1.70;;
67278;SDS011;54193;53.746;10.058;2022-07-04T08:28:06;4.17;;;1.60;;
67278;SDS011;54193;53.746;10.058;2022-07-04T08:30:52;5.03;;;1.75;;
67278;SDS011;54193;53.746;10.058;2022-07-04T08:33:38;5.18;;;1.90;;
67278;SDS011;54193;53.746;10.058;2022-07-04T08:36:23;5.28;;;1.80;;
67278;SDS011;54193;53.746;10.058;2022-07-04T08:39:09;3.78;;;1.77;;
67278;SDS011;54193;53.746;10.058;2022-07-04T08:41:56;5.70;;;1.80;;
67278;SDS011;54193;53.746;10.058;2022-07-04T08:44:50;5.55;;;1.70;;
67278;SDS011;54193;53.746;10.058;2022-07-04T08:47:37;3.28;;;1.50;;
67278;SDS011;54193;53.746;10.058;2022-07-04T08:50:29;3.50;;;1.73;;
67278;SDS011;54193;53.746;10.058;2022-07-04T08:53:18;3.78;;;1.60;;
67278;SDS011;54193;53.746;10.058;2022-07-04T08:56:06;5.13;;;1.70;;
67278;SDS011;54193;53.746;10.058;2022-07-04T08:59:12;5.28;;;1.80;;
67278;SDS011;54193;53.746;10.058;2022-07-04T09:01:59;3.55;;;1.60;;
67278;SDS011;54193;53.746;10.058;2022-07-04T09:04:45;3.50;;;1.45;;
67278;SDS011;54193;53.746;10.058;2022-07-04T09:07:31;3.10;;;1.50;;
67278;SDS011;54193;53.746;10.058;2022-07-04T09:10:17;3.97;;;1.60;;
67278;SDS011;54193;53.746;10.058;2022-07-04T09:13:07;2.47;;;1.60;;
67278;SDS011;54193;53.746;10.058;2022-07-04T09:15:53;4.43;;;1.33;;
67278;SDS011;54193;53.746;10.058;2022-07-04T09:18:38;2.20;;;1.25;;
67278;SDS011;54193;53.746;10.058;2022-07-04T09:21:41;3.00;;;1.20;;
67278;SDS011;54193;53.746;10.058;2022-07-04T09:24:43;3.70;;;1.40;;
67278;SDS011;54193;53.746;10.058;2022-07-04T09:27:33;3.60;;;1.40;;
67278;SDS011;54193;53.746;10.058;2022-07-04T09:30:24;3.10;;;1.50;;
67278;SDS011;54193;53.746;10.058;2022-07-04T09:33:11;3.33;;;1.70;;
67278;SDS011;54193;53.746;10.058;2022-07-04T09:35:57;2.72;;;1.50;;
67278;SDS011;54193;53.746;10.058;2022-07-04T09:38:43;2.47;;;1.40;;
67278;SDS011;54193;53.746;10.058;2022-07-04T09:41:29;4.82;;;1.40;;
67278;SDS011;54193;53.746;10.058;2022-07-04T09:44:20;3.63;;;1.30;;
67278;SDS011;54193;53.746;10.058;2022-07-04T09:47:19;3.83;;;1.55;;
67278;SDS011;54193;53.746;10.058;2022-07-04T09:50:12;3.55;;;1.42;;
67278;SDS011;54193;53.746;10.058;2022-07-04T09:53:00;3.17;;;1.40;;
67278;SDS011;54193;53.746;10.058;2022-07-04T09:55:48;4.22;;;1.70;;
67278;SDS011;54193;53.746;10.058;2022-07-04T09:58:35;3.17;;;1.50;;
67278;SDS011;54193;53.746;10.058;2022-07-04T10:01:21;3.50;;;1.40;;
67278;SDS011;54193;53.746;10.058;2022-07-04T10:04:07;3.88;;;1.50;;
67278;SDS011;54193;53.746;10.058;2022-07-04T10:06:54;3.50;;;1.53;;
67278;SDS011;54193;53.746;10.058;2022-07-04T10:09:41;2.65;;;1.30;;
67278;SDS011;54193;53.746;10.058;2022-07-04T10:12:27;3.17;;;1.42;;
67278;SDS011;54193;53.746;10.058;2022-07-04T10:15:13;4.13;;;1.35;;
67278;SDS011;54193;53.746;10.058;2022-07-04T10:17:59;4.15;;;1.13;;
67278;SDS011;54193;53.746;10.058;2022-07-04T10:20:45;4.80;;;1.20;;
67278;SDS011;54193;53.746;10.058;2022-07-04T10:23:31;3.45;;;1.40;;
67278;SDS011;54193;53.746;10.058;2022-07-04T10:26:18;3.13;;;1.60;;
67278;SDS011;54193;53.746;10.058;2022-07-04T10:29:04;2.70;;;1.23;;
67278;SDS011;54193;53.746;10.058;2022-07-04T10:31:50;3.42;;;1.20;;
67278;SDS011;54193;53.746;10.058;2022-07-04T10:34:40;3.50;;;1.47;;
67278;SDS011;54193;53.746;10.058;2022-07-04T10:37:57;3.60;;;1.40;;
67278;SDS011;54193;53.746;10.058;2022-07-04T10:46:50;2.08;;;1.00;;
67278;SDS011;54193;53.746;10.058;2022-07-04T10:49:36;3.00;;;1.37;;
67278;SDS011;54193;53.746;10.058;2022-07-04T10:52:22;2.97;;;1.20;;
67278;SDS011;54193;53.746;10.058;2022-07-04T10:55:10;3.53;;;1.10;;
67278;SDS011;54193;53.746;10.058;2022-07-04T10:57:56;4.25;;;1.30;;
67278;SDS011;54193;53.746;10.058;2022-07-04T11:03:56;2.83;;;1.20;;
67278;SDS011;54193;53.746;10.058;2022-07-04T11:09:28;4.57;;;1.40;;
67278;SDS011;54193;53.746;10.058;2022-07-04T11:12:14;2.92;;;1.30;;
67278;SDS011;54193;53.746;10.058;2022-07-04T11:14:59;3.80;;;1.55;;
67278;SDS011;54193;53.746;10.058;2022-07-04T11:17:45;3.20;;;1.20;;
67278;SDS011;54193;53.746;10.058;2022-07-04T11:20:33;4.30;;;1.40;;
67278;SDS011;54193;53.746;10.058;2022-07-04T11:23:19;3.90;;;1.40;;
67278;SDS011;54193;53.746;10.058;2022-07-04T11:26:06;2.38;;;1.30;;
67278;SDS011;54193;53.746;10.058;2022-07-04T11:28:52;4.20;;;1.40;;
67278;SDS011;54193;53.746;10.058;2022-07-04T11:31:38;3.47;;;1.47;;
67278;SDS011;54193;53.746;10.058;2022-07-04T11:34:30;2.97;;;1.40;;
67278;SDS011;54193;53.746;10.058;2022-07-04T11:37:16;3.58;;;1.50;;
67278;SDS011;54193;53.746;10.058;2022-07-04T11:40:02;3.22;;;1.50;;
67278;SDS011;54193;53.746;10.058;2022-07-04T11:43:07;4.03;;;1.52;;
67278;SDS011;54193;53.746;10.058;2022-07-04T11:46:12;3.53;;;1.60;;
67278;SDS011;54193;53.746;10.058;2022-07-04T11:49:07;3.60;;;1.52;;
67278;SDS011;54193;53.746;10.058;2022-07-04T11:51:54;2.97;;;1.40;;
67278;SDS011;54193;53.746;10.058;2022-07-04T11:54:41;3.40;;;1.50;;
67278;SDS011;54193;53.746;10.058;2022-07-04T11:57:29;5.95;;;1.58;;
67278;SDS011;54193;53.746;10.058;2022-07-04T12:00:20;2.90;;;1.40;;
67278;SDS011;54193;53.746;10.058;2022-07-04T12:03:06;3.47;;;1.58;;
67278;SDS011;54193;53.746;10.058;2022-07-04T12:06:04;3.15;;;1.50;;
67278;SDS011;54193;53.746;10.058;2022-07-04T12:08:51;3.85;;;1.30;;
67278;SDS011;54193;53.746;10.058;2022-07-04T12:11:51;4.20;;;1.50;;
67278;SDS011;54193;53.746;10.058;2022-07-04T12:17:48;5.15;;;1.50;;
67278;SDS011;54193;53.746;10.058;2022-07-04T12:20:35;3.75;;;1.55;;
67278;SDS011;54193;53.746;10.058;2022-07-04T12:23:21;4.78;;;1.67;;
67278;SDS011;54193;53.746;10.058;2022-07-04T12:26:08;2.30;;;1.30;;
67278;SDS011;54193;53.746;10.058;2022-07-04T12:28:55;3.08;;;1.40;;
67278;SDS011;54193;53.746;10.058;2022-07-04T12:31:42;2.35;;;1.40;;
67278;SDS011;54193;53.746;10.058;2022-07-04T12:34:29;2.45;;;1.35;;
67278;SDS011;54193;53.746;10.058;2022-07-04T12:37:15;2.70;;;1.38;;
67278;SDS011;54193;53.746;10.058;2022-07-04T12:40:07;4.20;;;1.40;;
67278;SDS011;54193;53.746;10.058;2022-07-04T12:42:58;4.50;;;1.70;;
67278;SDS011;54193;53.746;10.058;2022-07-04T12:45:45;4.63;;;1.60;;
67278;SDS011;54193;53.746;10.058;2022-07-04T12:48:33;4.55;;;1.60;;
67278;SDS011;54193;53.746;10.058;2022-07-04T12:51:22;4.03;;;1.73;;
67278;SDS011;54193;53.746;10.058;2022-07-04T12:54:09;3.28;;;1.52;;
67278;SDS011;54193;53.746;10.058;2022-07-04T13:00:12;7.40;;;1.90;;
67278;SDS011;54193;53.746;10.058;2022-07-04T13:02:59;4.93;;;1.67;;
67278;SDS011;54193;53.746;10.058;2022-07-04T13:05:45;3.42;;;1.70;;
67278;SDS011;54193;53.746;10.058;2022-07-04T13:08:32;3.00;;;1.45;;
67278;SDS011;54193;53.746;10.058;2022-07-04T13:11:19;3.67;;;1.70;;
67278;SDS011;54193;53.746;10.058;2022-07-04T13:14:24;3.90;;;1.60;;
67278;SDS011;54193;53.746;10.058;2022-07-04T13:17:09;4.43;;;1.60;;
67278;SDS011;54193;53.746;10.058;2022-07-04T13:19:55;3.93;;;1.60;;
67278;SDS011;54193;53.746;10.058;2022-07-04T13:22:42;2.75;;;1.50;;
67278;SDS011;54193;53.746;10.058;2022-07-04T13:25:28;3.50;;;1.70;;
67278;SDS011;54193;53.746;10.058;2022-07-04T13:28:13;4.60;;;1.67;;
67278;SDS011;54193;53.746;10.058;2022-07-04T13:30:59;4.90;;;1.80;;
67278;SDS011;54193;53.746;10.058;2022-07-04T13:33:45;5.33;;;1.90;;
67278;SDS011;54193;53.746;10.058;2022-07-04T13:36:30;3.95;;;1.70;;
67278;SDS011;54193;53.746;10.058;2022-07-04T13:39:16;5.05;;;1.80;;
67278;SDS011;54193;53.746;10.058;2022-07-04T13:42:02;3.63;;;2.00;;
67278;SDS011;54193;53.746;10.058;2022-07-04T13:44:48;3.42;;;1.70;;
67278;SDS011;54193;53.746;10.058;2022-07-04T13:47:33;4.03;;;1.67;;
67278;SDS011;54193;53.746;10.058;2022-07-04T13:50:19;3.67;;;1.92;;
67278;SDS011;54193;53.746;10.058;2022-07-04T13:53:06;3.97;;;1.77;;
67278;SDS011;54193;53.746;10.058;2022-07-04T13:55:53;4.15;;;1.90;;
67278;SDS011;54193;53.746;10.058;2022-07-04T13:58:41;5.22;;;1.92;;
67278;SDS011;54193;53.746;10.058;2022-07-04T14:01:29;3.03;;;1.80;;
67278;SDS011;54193;53.746;10.058;2022-07-04T14:04:15;4.38;;;1.80;;
67278;SDS011;54193;53.746;10.058;2022-07-04T14:07:00;4.35;;;1.88;;
67278;SDS011;54193;53.746;10.058;2022-07-04T14:09:46;3.78;;;1.90;;
67278;SDS011;54193;53.746;10.058;2022-07-04T14:12:32;6.33;;;2.00;;
67278;SDS011;54193;53.746;10.058;2022-07-04T14:15:18;6.20;;;2.00;;
67278;SDS011;54193;53.746;10.058;2022-07-04T14:18:04;5.03;;;1.80;;
67278;SDS011;54193;53.746;10.058;2022-07-04T14:20:52;4.43;;;1.83;;
67278;SDS011;54193;53.746;10.058;2022-07-04T14:23:38;3.70;;;1.65;;
67278;SDS011;54193;53.746;10.058;2022-07-04T14:26:27;4.03;;;1.70;;
67278;SDS011;54193;53.746;10.058;2022-07-04T14:29:12;4.13;;;1.75;;
67278;SDS011;54193;53.746;10.058;2022-07-04T14:31:59;3.58;;;1.83;;
67278;SDS011;54193;53.746;10.058;2022-07-04T14:34:45;4.75;;;1.80;;
67278;SDS011;54193;53.746;10.058;2022-07-04T14:37:31;3.15;;;1.65;;
67278;SDS011;54193;53.746;10.058;2022-07-04T14:40:16;3.70;;;1.80;;
67278;SDS011;54193;53.746;10.058;2022-07-04T14:43:02;3.85;;;1.60;;
67278;SDS011;54193;53.746;10.058;2022-07-04T14:45:48;3.15;;;1.63;;
67278;SDS011;54193;53.746;10.058;2022-07-04T14:48:34;4.88;;;1.90;;
67278;SDS011;54193;53.746;10.058;2022-07-04T14:51:21;4.57;;;1.98;;
67278;SDS011;54193;53.746;10.058;2022-07-04T14:54:07;3.50;;;1.80;;
67278;SDS011;54193;53.746;10.058;2022-07-04T14:56:53;6.07;;;1.90;;
67278;SDS011;54193;53.746;10.058;2022-07-04T14:59:39;4.53;;;2.10;;
67278;SDS011;54193;53.746;10.058;2022-07-04T15:02:25;5.95;;;2.20;;
67278;SDS011;54193;53.746;10.058;2022-07-04T15:05:11;4.60;;;2.05;;
67278;SDS011;54193;53.746;10.058;2022-07-04T15:07:56;3.50;;;1.83;;
67278;SDS011;54193;53.746;10.058;2022-07-04T15:10:42;6.03;;;2.20;;
67278;SDS011;54193;53.746;10.058;2022-07-04T15:13:28;4.53;;;2.00;;
67278;SDS011;54193;53.746;10.058;2022-07-04T15:16:14;4.63;;;1.92;;
67278;SDS011;54193;53.746;10.058;2022-07-04T15:18:59;3.72;;;2.00;;
67278;SDS011;54193;53.746;10.058;2022-07-04T15:21:45;4.00;;;1.80;;
67278;SDS011;54193;53.746;10.058;2022-07-04T15:24:51;4.00;;;2.00;;
67278;SDS011;54193;53.746;10.058;2022-07-04T15:27:36;5.80;;;2.03;;
67278;SDS011;54193;53.746;10.058;2022-07-04T15:30:22;3.65;;;1.80;;
67278;SDS011;54193;53.746;10.058;2022-07-04T15:33:09;5.63;;;2.00;;
67278;SDS011;54193;53.746;10.058;2022-07-04T15:35:59;3.50;;;1.90;;
67278;SDS011;54193;53.746;10.058;2022-07-04T15:38:47;3.83;;;1.77;;
67278;SDS011;54193;53.746;10.058;2022-07-04T15:41:36;4.63;;;1.88;;
67278;SDS011;54193;53.746;10.058;2022-07-04T15:44:22;4.13;;;2.00;;
67278;SDS011;54193;53.746;10.058;2022-07-04T15:47:07;4.45;;;2.08;;
67278;SDS011;54193;53.746;10.058;2022-07-04T15:49:53;4.87;;;2.10;;
67278;SDS011;54193;53.746;10.058;2022-07-04T15:52:39;3.72;;;2.00;;
67278;SDS011;54193;53.746;10.058;2022-07-04T15:55:24;4.18;;;1.90;;
67278;SDS011;54193;53.746;10.058;2022-07-04T15:58:11;6.15;;;2.20;;
67278;SDS011;54193;53.746;10.058;2022-07-04T16:00:57;4.55;;;2.13;;
67278;SDS011;54193;53.746;10.058;2022-07-04T16:03:42;4.13;;;2.10;;
67278;SDS011;54193;53.746;10.058;2022-07-04T16:06:28;4.00;;;1.90;;
67278;SDS011;54193;53.746;10.058;2022-07-04T16:09:14;4.22;;;2.15;;
67278;SDS011;54193;53.746;10.058;2022-07-04T16:11:59;4.22;;;2.30;;
67278;SDS011;54193;53.746;10.058;2022-07-04T16:14:45;4.28;;;2.15;;
67278;SDS011;54193;53.746;10.058;2022-07-04T16:17:31;3.30;;;2.10;;
67278;SDS011;54193;53.746;10.058;2022-07-04T16:20:17;5.63;;;1.80;;
67278;SDS011;54193;53.746;10.058;2022-07-04T16:23:03;4.95;;;1.83;;
67278;SDS011;54193;53.746;10.058;2022-07-04T16:25:50;5.05;;;2.08;;
67278;SDS011;54193;53.746;10.058;2022-07-04T16:28:37;4.57;;;1.90;;
67278;SDS011;54193;53.746;10.058;2022-07-04T16:31:23;5.43;;;2.00;;
67278;SDS011;54193;53.746;10.058;2022-07-04T16:34:08;5.03;;;2.20;;
67278;SDS011;54193;53.746;10.058;2022-07-04T16:36:55;4.25;;;1.70;;
67278;SDS011;54193;53.746;10.058;2022-07-04T16:39:40;4.95;;;2.20;;